createdAt,value
2019-05-03T00:00:47.415Z,100683.05
2019-05-03T00:02:27.329Z,100680.91
2019-05-03T00:03:32.694Z,100682.42
2019-05-03T00:04:38.256Z,100686.02
2019-05-03T00:05:52.503Z,100681.27
2019-05-03T00:06:57.474Z,100689.36
2019-05-03T00:08:07.160Z,100689.30
2019-05-03T00:09:13.848Z,100685.95
2019-05-03T00:10:19.334Z,100691.05
2019-05-03T00:11:24.325Z,100690.77
2019-05-03T00:12:28.812Z,100689.86
2019-05-03T00:13:36.339Z,100690.71
2019-05-03T00:14:42.981Z,100690.90
2019-05-03T00:16:18.730Z,100692.92
2019-05-03T00:17:23.671Z,100691.27
2019-05-03T00:18:28.949Z,100686.85
2019-05-03T00:19:34.296Z,100691.56
2019-05-03T00:20:39.321Z,100689.23
2019-05-03T00:21:43.815Z,100690.72
2019-05-03T00:22:49.077Z,100691.02
2019-05-03T00:23:54.020Z,100690.81
2019-05-03T00:25:05.953Z,100694.66
2019-05-03T00:26:05.451Z,100692.33
2019-05-03T00:27:12.317Z,100689.86
2019-05-03T00:28:17.159Z,100690.65
2019-05-03T00:29:22.135Z,100689.47
2019-05-03T00:30:27.418Z,100693.12
2019-05-03T00:31:32.115Z,100696.49
2019-05-03T00:32:37.406Z,100696.70
2019-05-03T00:33:44.703Z,100692.45
2019-05-03T00:34:52.374Z,100693.25
2019-05-03T00:36:14.621Z,100690.19
2019-05-03T00:37:22.101Z,100694.23
2019-05-03T00:38:27.183Z,100688.95
2019-05-03T00:39:36.224Z,100691.94
2019-05-03T00:40:41.682Z,100694.16
2019-05-03T00:41:46.677Z,100697.23
2019-05-03T00:42:51.780Z,100696.28
2019-05-03T00:43:56.463Z,100697.46
2019-05-03T00:45:02.319Z,100694.59
2019-05-03T00:46:07.048Z,100691.41
2019-05-03T00:47:12.569Z,100698.97
2019-05-03T00:48:17.827Z,100700.42
2019-05-03T00:49:22.845Z,100692.38
2019-05-03T00:50:27.812Z,100694.11
2019-05-03T00:51:32.586Z,100692.28
2019-05-03T00:52:37.849Z,100698.23
2019-05-03T00:53:42.842Z,100687.36
2019-05-03T00:54:48.097Z,100690.87
2019-05-03T00:55:52.813Z,100694.02
2019-05-03T00:56:57.861Z,100689.40
2019-05-03T00:58:02.714Z,100690.08
2019-05-03T00:59:07.440Z,100677.59
2019-05-03T01:00:12.641Z,100680.96
2019-05-03T01:01:17.765Z,100681.65
2019-05-03T01:02:22.732Z,100686.69
2019-05-03T01:03:27.735Z,100686.59
2019-05-03T01:04:33.273Z,100685.22
2019-05-03T01:05:38.532Z,100686.02
2019-05-03T01:06:43.499Z,100683.97
2019-05-03T01:07:48.790Z,100686.77
2019-05-03T01:08:53.850Z,100683.05
2019-05-03T01:09:58.843Z,100693.27
2019-05-03T01:11:03.549Z,100691.46
2019-05-03T01:12:08.041Z,100692.05
2019-05-03T01:13:13.302Z,100692.04
2019-05-03T01:14:18.329Z,100693.70
2019-05-03T01:15:57.183Z,100694.37
2019-05-03T01:17:02.729Z,100684.58
2019-05-03T01:18:08.527Z,100693.72
2019-05-03T01:19:13.231Z,100689.55
2019-05-03T01:20:17.932Z,100688.48
2019-05-03T01:21:22.979Z,100684.30
2019-05-03T01:22:28.280Z,100686.23
2019-05-03T01:23:33.263Z,100688.15
2019-05-03T01:24:38.233Z,100689.47
2019-05-03T01:25:43.274Z,100686.22
2019-05-03T01:26:48.520Z,100685.98
2019-05-03T01:27:53.743Z,100685.21
2019-05-03T01:28:59.002Z,100688.48
2019-05-03T01:30:04.092Z,100693.35
2019-05-03T01:31:08.985Z,100691.39
2019-05-03T01:32:13.936Z,100686.97
2019-05-03T01:33:18.632Z,100698.09
2019-05-03T01:34:23.176Z,100693.38
2019-05-03T01:35:28.168Z,100694.42
2019-05-03T01:36:34.061Z,100693.98
2019-05-03T01:37:38.767Z,100688.92
2019-05-03T01:38:43.445Z,100697.95
2019-05-03T01:39:48.764Z,100691.67
2019-05-03T01:40:53.467Z,100696.28
2019-05-03T01:41:58.455Z,100697.77
2019-05-03T01:43:03.474Z,100697.53
2019-05-03T01:44:08.720Z,100696.61
2019-05-03T01:45:14.138Z,100701.27
2019-05-03T01:46:19.379Z,100707.29
2019-05-03T01:47:32.614Z,100704.66
2019-05-03T01:48:52.247Z,100699.67
2019-05-03T01:50:06.398Z,100711.56
2019-05-03T01:51:22.518Z,100706.29
2019-05-03T01:52:33.317Z,100704.17
2019-05-03T01:53:38.545Z,100707.67
2019-05-03T01:54:43.522Z,100710.35
2019-05-03T01:55:54.594Z,100702.77
2019-05-03T01:56:59.843Z,100704.52
2019-05-03T01:58:04.788Z,100701.91
2019-05-03T01:59:09.790Z,100701.97
2019-05-03T02:00:19.451Z,100702.26
2019-05-03T02:01:42.070Z,100701.39
2019-05-03T02:03:06.270Z,100700.19
2019-05-03T02:04:17.005Z,100714.25
2019-05-03T02:05:42.910Z,100708.63
2019-05-03T02:06:48.308Z,100710.23
2019-05-03T02:07:53.554Z,100708.85
2019-05-03T02:08:58.810Z,100706.32
2019-05-03T02:10:03.814Z,100708.98
2019-05-03T02:11:08.564Z,100706.78
2019-05-03T02:12:13.804Z,100708.63
2019-05-03T02:13:18.769Z,100704.14
2019-05-03T02:14:24.033Z,100709.16
2019-05-03T02:15:28.815Z,100703.19
2019-05-03T02:16:33.682Z,100717.14
2019-05-03T02:17:38.934Z,100711.49
2019-05-03T02:18:43.918Z,100714.09
2019-05-03T02:19:49.438Z,100711.69
2019-05-03T02:20:54.459Z,100714.31
2019-05-03T02:22:00.061Z,100713.81
2019-05-03T02:23:04.877Z,100715.84
2019-05-03T02:24:11.651Z,100709.61
2019-05-03T02:25:16.543Z,100716.46
2019-05-03T02:26:22.413Z,100724.66
2019-05-03T02:27:27.235Z,100715.50
2019-05-03T02:28:32.673Z,100719.39
2019-05-03T02:29:38.031Z,100720.78
2019-05-03T02:30:44.157Z,100722.22
2019-05-03T02:31:49.659Z,100724.20
2019-05-03T02:32:54.114Z,100728.61
2019-05-03T02:34:00.126Z,100724.15
2019-05-03T02:35:04.967Z,100730.46
2019-05-03T02:36:09.938Z,100732.68
2019-05-03T02:37:15.125Z,100725.24
2019-05-03T02:38:19.894Z,100726.55
2019-05-03T02:39:24.596Z,100726.50
2019-05-03T02:40:29.873Z,100725.36
2019-05-03T02:41:35.024Z,100723.92
2019-05-03T02:42:39.754Z,100724.32
2019-05-03T02:43:47.659Z,100726.97
2019-05-03T02:44:52.351Z,100727.02
2019-05-03T02:46:16.761Z,100728.56
2019-05-03T02:47:31.890Z,100736.45
2019-05-03T02:48:46.500Z,100736.64
2019-05-03T02:49:58.899Z,100738.28
2019-05-03T02:51:06.530Z,100736.14
2019-05-03T02:52:30.384Z,100736.34
2019-05-03T02:53:36.096Z,100733.43
2019-05-03T02:54:41.233Z,100734.34
2019-05-03T02:55:46.757Z,100735.46
2019-05-03T02:56:52.028Z,100737.66
2019-05-03T02:57:57.018Z,100741.11
2019-05-03T02:59:01.517Z,100735.97
2019-05-03T03:00:08.778Z,100739.85
2019-05-03T03:01:16.036Z,100742.77
2019-05-03T03:02:20.285Z,100740.64
2019-05-03T03:03:25.577Z,100737.95
2019-05-03T03:04:31.106Z,100730.96
2019-05-03T03:05:36.579Z,100738.93
2019-05-03T03:06:45.415Z,100745.44
2019-05-03T03:07:52.755Z,100732.83
2019-05-03T03:08:59.377Z,100744.91
2019-05-03T03:10:06.283Z,100743.98
2019-05-03T03:11:10.964Z,100735.48
2019-05-03T03:12:17.014Z,100742.41
2019-05-03T03:13:25.363Z,100742.88
2019-05-03T03:14:36.368Z,100743.30
2019-05-03T03:15:45.703Z,100743.55
2019-05-03T03:16:52.212Z,100743.56
2019-05-03T03:17:59.720Z,100746.25
2019-05-03T03:19:06.686Z,100750.66
2019-05-03T03:20:12.448Z,100745.80
2019-05-03T03:21:18.197Z,100750.22
2019-05-03T03:22:25.969Z,100749.05
2019-05-03T03:23:35.500Z,100751.57
2019-05-03T03:24:45.802Z,100750.02
2019-05-03T03:25:51.714Z,100749.77
2019-05-03T03:26:58.899Z,100746.18
2019-05-03T03:28:05.518Z,100750.85
2019-05-03T03:29:11.386Z,100748.86
2019-05-03T03:30:38.869Z,100747.83
2019-05-03T03:32:00.048Z,100755.46
2019-05-03T03:33:09.044Z,100757.53
2019-05-03T03:34:18.258Z,100748.87
2019-05-03T03:35:29.907Z,100745.14
2019-05-03T03:36:50.539Z,100752.85
2019-05-03T03:37:41.668Z,100746.97
2019-05-03T03:38:46.880Z,100752.67
2019-05-03T03:39:52.548Z,100756.28
2019-05-03T03:40:58.981Z,100747.77
2019-05-03T03:42:05.522Z,100748.07
2019-05-03T03:43:11.109Z,100750.84
2019-05-03T03:44:19.050Z,100751.60
2019-05-03T03:45:25.374Z,100751.23
2019-05-03T03:46:32.439Z,100755.97
2019-05-03T03:47:39.830Z,100752.52
2019-05-03T03:48:46.146Z,100752.92
2019-05-03T03:49:55.203Z,100757.02
2019-05-03T03:51:00.390Z,100754.30
2019-05-03T03:52:06.272Z,100759.58
2019-05-03T03:53:15.264Z,100751.70
2019-05-03T03:54:20.141Z,100755.19
2019-05-03T03:55:26.472Z,100758.72
2019-05-03T03:56:46.038Z,100758.19
2019-05-03T03:57:41.692Z,100761.75
2019-05-03T03:58:46.952Z,100757.27
2019-05-03T03:59:51.650Z,100757.15
2019-05-03T04:00:56.907Z,100761.36
2019-05-03T04:02:01.993Z,100761.23
2019-05-03T04:03:06.902Z,100757.43
2019-05-03T04:04:12.245Z,100749.53
2019-05-03T04:05:17.240Z,100757.43
2019-05-03T04:06:26.867Z,100760.30
2019-05-03T04:07:31.629Z,100765.18
2019-05-03T04:08:36.667Z,100768.24
2019-05-03T04:09:42.216Z,100768.33
2019-05-03T04:10:47.753Z,100772.23
2019-05-03T04:11:53.339Z,100773.14
2019-05-03T04:12:59.387Z,100773.70
2019-05-03T04:14:05.434Z,100767.99
2019-05-03T04:15:41.041Z,100770.05
2019-05-03T04:17:10.740Z,100770.17
2019-05-03T04:18:25.690Z,100772.68
2019-05-03T04:19:32.507Z,100779.57
2019-05-03T04:20:37.948Z,100774.24
2019-05-03T04:21:45.217Z,100772.71
2019-05-03T04:22:49.944Z,100773.97
2019-05-03T04:23:55.665Z,100778.40
2019-05-03T04:25:00.599Z,100781.37
2019-05-03T04:26:12.803Z,100780.69
2019-05-03T04:27:23.285Z,100782.39
2019-05-03T04:28:25.684Z,100782.40
2019-05-03T04:29:32.176Z,100784.88
2019-05-03T04:30:37.051Z,100786.06
2019-05-03T04:31:42.018Z,100784.09
2019-05-03T04:32:46.504Z,100778.38
2019-05-03T04:33:51.815Z,100787.19
2019-05-03T04:34:56.550Z,100792.36
2019-05-03T04:36:01.810Z,100788.50
2019-05-03T04:37:06.621Z,100794.47
2019-05-03T04:38:11.881Z,100792.05
2019-05-03T04:39:19.992Z,100793.42
2019-05-03T04:40:25.680Z,100801.39
2019-05-03T04:41:30.338Z,100806.00
2019-05-03T04:42:35.742Z,100808.30
2019-05-03T04:43:40.653Z,100807.91
2019-05-03T04:44:45.916Z,100815.55
2019-05-03T04:46:06.566Z,100813.51
2019-05-03T04:47:11.864Z,100814.78
2019-05-03T04:48:17.280Z,100806.80
2019-05-03T04:49:25.844Z,100812.05
2019-05-03T04:50:29.121Z,100812.38
2019-05-03T04:51:35.009Z,100811.06
2019-05-03T04:52:39.846Z,100820.47
2019-05-03T04:53:48.436Z,100820.41
2019-05-03T04:54:57.792Z,100820.16
2019-05-03T04:56:05.549Z,100826.87
2019-05-03T04:57:09.527Z,100831.58
2019-05-03T04:58:16.095Z,100834.52
2019-05-03T04:59:21.541Z,100835.39
2019-05-03T05:00:26.730Z,100830.28
2019-05-03T05:01:35.139Z,100836.93
2019-05-03T05:02:39.684Z,100832.39
2019-05-03T05:03:45.703Z,100839.99
2019-05-03T05:04:50.778Z,100837.00
2019-05-03T05:05:59.267Z,100837.50
2019-05-03T05:07:03.091Z,100844.65
2019-05-03T05:08:07.760Z,100842.69
2019-05-03T05:09:15.352Z,100845.06
2019-05-03T05:10:20.010Z,100846.02
2019-05-03T05:11:26.375Z,100850.89
2019-05-03T05:12:31.554Z,100846.18
2019-05-03T05:13:36.575Z,100853.31
2019-05-03T05:14:42.146Z,100850.77
2019-05-03T05:15:47.424Z,100849.59
2019-05-03T05:16:55.476Z,100848.48
2019-05-03T05:18:16.672Z,100851.33
2019-05-03T05:19:28.164Z,100849.59
2019-05-03T05:20:46.538Z,100858.66
2019-05-03T05:21:55.052Z,100852.48
2019-05-03T05:22:59.764Z,100853.69
2019-05-03T05:24:05.811Z,100852.45
2019-05-03T05:25:14.892Z,100856.54
2019-05-03T05:26:21.430Z,100856.17
2019-05-03T05:27:34.629Z,100865.69
2019-05-03T05:28:44.751Z,100864.86
2019-05-03T05:29:49.514Z,100856.98
2019-05-03T05:30:54.805Z,100860.31
2019-05-03T05:31:59.770Z,100864.58
2019-05-03T05:33:05.438Z,100864.93
2019-05-03T05:34:10.405Z,100864.81
2019-05-03T05:35:15.380Z,100860.87
2019-05-03T05:36:20.366Z,100864.28
2019-05-03T05:37:25.906Z,100867.39
2019-05-03T05:38:30.874Z,100869.06
2019-05-03T05:39:35.840Z,100872.53
2019-05-03T05:40:40.838Z,100878.17
2019-05-03T05:41:45.823Z,100879.28
2019-05-03T05:42:50.345Z,100878.36
2019-05-03T05:43:55.125Z,100881.14
2019-05-03T05:45:00.071Z,100881.20
2019-05-03T05:46:05.364Z,100880.72
2019-05-03T05:47:35.110Z,100888.77
2019-05-03T05:48:45.276Z,100884.36
2019-05-03T05:50:00.260Z,100886.88
2019-05-03T05:51:04.702Z,100890.75
2019-05-03T05:52:09.803Z,100899.09
2019-05-03T05:53:15.409Z,100902.89
2019-05-03T05:54:20.371Z,100899.00
2019-05-03T05:55:50.391Z,100898.75
2019-05-03T05:57:02.504Z,100904.09
2019-05-03T05:58:25.378Z,100898.05
2019-05-03T05:59:50.907Z,100903.23
2019-05-03T06:01:09.625Z,100907.08
2019-05-03T06:02:15.075Z,100902.67
2019-05-03T06:03:20.073Z,100899.03
2019-05-03T06:04:25.013Z,100905.32
2019-05-03T06:05:30.026Z,100898.75
2019-05-03T06:06:42.279Z,100897.13
2019-05-03T06:08:00.601Z,100903.03
2019-05-03T06:09:22.359Z,100901.46
2019-05-03T06:10:34.824Z,100895.21
2019-05-03T06:12:01.968Z,100904.20
2019-05-03T06:13:11.615Z,100897.58
2019-05-03T06:14:45.297Z,100910.05
2019-05-03T06:15:58.265Z,100908.05
2019-05-03T06:17:09.345Z,100905.00
2019-05-03T06:18:19.089Z,100912.75
2019-05-03T06:19:30.935Z,100913.30
2019-05-03T06:20:45.078Z,100915.30
2019-05-03T06:21:59.763Z,100907.83
2019-05-03T06:23:08.884Z,100914.41
2019-05-03T06:24:19.319Z,100913.58
2019-05-03T06:25:30.868Z,100914.97
2019-05-03T06:26:38.214Z,100914.89
2019-05-03T06:27:44.874Z,100918.68
2019-05-03T06:28:49.368Z,100923.94
2019-05-03T06:29:56.104Z,100916.14
2019-05-03T06:31:10.554Z,100917.96
2019-05-03T06:32:34.650Z,100920.20
2019-05-03T06:33:39.271Z,100919.50
2019-05-03T06:34:45.526Z,100920.45
2019-05-03T06:35:50.272Z,100917.00
2019-05-03T06:36:57.093Z,100922.47
2019-05-03T06:38:02.381Z,100918.61
2019-05-03T06:39:09.346Z,100921.50
2019-05-03T06:40:15.016Z,100917.62
2019-05-03T06:41:20.314Z,100918.09
2019-05-03T06:42:25.606Z,100917.59
2019-05-03T06:43:31.207Z,100922.53
2019-05-03T06:44:36.169Z,100924.07
2019-05-03T06:45:46.650Z,100926.42
2019-05-03T06:46:48.273Z,100921.77
2019-05-03T06:47:55.066Z,100921.67
2019-05-03T06:49:01.007Z,100919.00
2019-05-03T06:50:06.355Z,100927.61
2019-05-03T06:51:15.940Z,100926.98
2019-05-03T06:52:19.897Z,100925.98
2019-05-03T06:53:25.538Z,100927.39
2019-05-03T06:54:30.938Z,100929.80
2019-05-03T06:55:40.012Z,100927.23
2019-05-03T06:56:42.556Z,100927.45
2019-05-03T06:57:49.566Z,100922.97
2019-05-03T06:58:55.223Z,100929.20
2019-05-03T07:00:10.692Z,100925.16
2019-05-03T07:01:25.328Z,100928.02
2019-05-03T07:02:54.844Z,100929.75
2019-05-03T07:04:10.721Z,100928.03
2019-05-03T07:05:36.407Z,100926.77
2019-05-03T07:06:59.962Z,100926.13
2019-05-03T07:08:29.730Z,100921.16
2019-05-03T07:09:44.344Z,100923.62
2019-05-03T07:10:51.926Z,100925.16
2019-05-03T07:11:56.908Z,100929.92
2019-05-03T07:13:04.752Z,100927.59
2019-05-03T07:14:09.371Z,100928.95
2019-05-03T07:15:14.498Z,100932.69
2019-05-03T07:16:19.488Z,100933.33
2019-05-03T07:17:24.839Z,100927.64
2019-05-03T07:18:30.177Z,100928.81
2019-05-03T07:19:35.518Z,100927.12
2019-05-03T07:20:46.897Z,100922.27
2019-05-03T07:21:52.161Z,100920.05
2019-05-03T07:22:57.050Z,100922.66
2019-05-03T07:24:02.041Z,100924.63
2019-05-03T07:25:06.791Z,100924.89
2019-05-03T07:26:12.071Z,100929.02
2019-05-03T07:27:17.057Z,100921.69
2019-05-03T07:28:24.839Z,100924.06
2019-05-03T07:29:30.156Z,100928.74
2019-05-03T07:30:37.056Z,100926.05
2019-05-03T07:31:44.594Z,100929.30
2019-05-03T07:32:54.560Z,100941.27
2019-05-03T07:33:59.581Z,100933.08
2019-05-03T07:35:04.614Z,100936.70
2019-05-03T07:36:09.291Z,100924.06
2019-05-03T07:37:14.586Z,100929.84
2019-05-03T07:38:19.836Z,100923.62
2019-05-03T07:39:24.821Z,100920.27
2019-05-03T07:40:30.067Z,100920.27
2019-05-03T07:41:35.708Z,100920.91
2019-05-03T07:42:40.364Z,100923.31
2019-05-03T07:43:45.349Z,100923.72
2019-05-03T07:44:50.255Z,100921.59
2019-05-03T07:45:55.527Z,100922.64
2019-05-03T07:47:00.776Z,100928.14
2019-05-03T07:48:05.238Z,100925.04
2019-05-03T07:49:10.648Z,100923.81
2019-05-03T07:50:15.619Z,100913.69
2019-05-03T07:51:20.415Z,100921.67
2019-05-03T07:52:25.825Z,100922.04
2019-05-03T07:53:34.859Z,100921.42
2019-05-03T07:54:40.057Z,100920.25
2019-05-03T07:55:56.435Z,100916.58
2019-05-03T07:57:06.386Z,100916.70
2019-05-03T07:58:15.050Z,100926.89
2019-05-03T07:59:19.923Z,100924.87
2019-05-03T08:00:25.995Z,100917.70
2019-05-03T08:01:40.100Z,100915.86
2019-05-03T08:02:45.401Z,100913.11
2019-05-03T08:03:50.101Z,100920.22
2019-05-03T08:04:55.364Z,100910.77
2019-05-03T08:06:00.635Z,100917.72
2019-05-03T08:07:05.575Z,100917.20
2019-05-03T08:08:10.533Z,100913.12
2019-05-03T08:09:15.617Z,100917.53
2019-05-03T08:10:20.314Z,100916.09
2019-05-03T08:11:25.270Z,100916.53
2019-05-03T08:12:30.534Z,100916.53
2019-05-03T08:13:36.106Z,100916.81
2019-05-03T08:14:40.786Z,100909.83
2019-05-03T08:15:45.516Z,100918.53
2019-05-03T08:16:50.004Z,100920.57
2019-05-03T08:17:55.451Z,100921.56
2019-05-03T08:19:00.257Z,100917.21
2019-05-03T08:20:05.309Z,100922.72
2019-05-03T08:21:10.348Z,100925.42
2019-05-03T08:22:15.334Z,100931.78
2019-05-03T08:23:27.491Z,100926.32
2019-05-03T08:24:27.308Z,100927.97
2019-05-03T08:25:32.026Z,100925.17
2019-05-03T08:26:37.325Z,100923.61
2019-05-03T08:27:41.829Z,100926.48
2019-05-03T08:28:46.814Z,100922.76
2019-05-03T08:29:51.498Z,100914.17
2019-05-03T08:31:18.085Z,100924.41
2019-05-03T08:32:35.267Z,100919.80
2019-05-03T08:34:04.976Z,100923.81
2019-05-03T08:35:20.027Z,100923.93
2019-05-03T08:36:25.320Z,100915.28
2019-05-03T08:37:41.597Z,100924.14
2019-05-03T08:38:46.391Z,100924.11
2019-05-03T08:39:51.466Z,100917.88
2019-05-03T08:40:57.206Z,100919.58
2019-05-03T08:42:04.800Z,100921.11
2019-05-03T08:43:09.549Z,100921.84
2019-05-03T08:44:14.621Z,100927.42
2019-05-03T08:45:19.124Z,100917.58
2019-05-03T08:46:25.346Z,100923.48
2019-05-03T08:47:34.401Z,100917.95
2019-05-03T08:48:37.190Z,100914.63
2019-05-03T08:49:42.449Z,100918.13
2019-05-03T08:50:46.892Z,100920.35
2019-05-03T08:51:52.147Z,100919.86
2019-05-03T08:52:57.264Z,100919.70
2019-05-03T08:54:02.249Z,100923.21
2019-05-03T08:55:07.210Z,100916.23
2019-05-03T08:56:12.758Z,100923.64
2019-05-03T08:57:17.734Z,100913.26
2019-05-03T08:58:22.704Z,100925.50
2019-05-03T08:59:32.323Z,100922.75
2019-05-03T09:00:36.125Z,100922.60
2019-05-03T09:01:41.104Z,100924.66
2019-05-03T09:02:45.819Z,100918.38
2019-05-03T09:03:51.095Z,100924.95
2019-05-03T09:04:55.775Z,100919.55
2019-05-03T09:06:00.787Z,100921.13
2019-05-03T09:07:05.597Z,100917.95
2019-05-03T09:08:10.286Z,100918.33
2019-05-03T09:09:25.702Z,100923.62
2019-05-03T09:10:48.846Z,100924.89
2019-05-03T09:11:55.683Z,100928.36
2019-05-03T09:13:17.549Z,100916.80
2019-05-03T09:14:24.449Z,100916.66
2019-05-03T09:15:29.890Z,100919.06
2019-05-03T09:16:35.593Z,100917.92
2019-05-03T09:17:40.343Z,100914.96
2019-05-03T09:18:45.552Z,100917.34
2019-05-03T09:19:50.566Z,100920.39
2019-05-03T09:20:55.614Z,100913.38
2019-05-03T09:22:00.355Z,100905.93
2019-05-03T09:23:05.662Z,100907.33
2019-05-03T09:24:11.240Z,100894.84
2019-05-03T09:25:16.035Z,100908.45
2019-05-03T09:26:20.485Z,100890.09
2019-05-03T09:27:25.656Z,100908.94
2019-05-03T09:28:30.623Z,100907.42
2019-05-03T09:29:43.067Z,100913.28
2019-05-03T09:30:42.159Z,100908.30
2019-05-03T09:31:47.432Z,100916.02
2019-05-03T09:32:52.665Z,100909.13
2019-05-03T09:33:57.642Z,100909.64
2019-05-03T09:35:05.416Z,100913.29
2019-05-03T09:36:09.899Z,100920.81
2019-05-03T09:37:15.545Z,100900.21
2019-05-03T09:38:20.559Z,100900.21
2019-05-03T09:39:25.555Z,100908.30
2019-05-03T09:40:30.278Z,100908.30
2019-05-03T09:41:35.305Z,100908.97
2019-05-03T09:42:40.294Z,100911.69
2019-05-03T09:43:45.328Z,100902.81
2019-05-03T09:44:52.483Z,100897.00
2019-05-03T09:45:56.550Z,100895.97
2019-05-03T09:47:01.788Z,100888.11
2019-05-03T09:48:06.552Z,100890.91
2019-05-03T09:49:15.852Z,100894.01
2019-05-03T09:50:18.044Z,100887.06
2019-05-03T09:51:22.505Z,100900.02
2019-05-03T09:52:27.200Z,100900.02
2019-05-03T09:53:36.037Z,100897.98
2019-05-03T09:54:48.239Z,100894.88
2019-05-03T09:55:52.934Z,100897.42
2019-05-03T09:56:58.962Z,100899.92
2019-05-03T09:58:05.594Z,100900.00
2019-05-03T09:59:10.962Z,100904.64
2019-05-03T10:00:17.504Z,100905.58
2019-05-03T10:01:22.772Z,100902.38
2019-05-03T10:02:27.473Z,100902.52
2019-05-03T10:03:32.177Z,100907.34
2019-05-03T10:04:36.968Z,100903.41
2019-05-03T10:05:41.906Z,100904.52
2019-05-03T10:06:46.915Z,100901.24
2019-05-03T10:07:51.368Z,100900.33
2019-05-03T10:08:56.330Z,100900.55
2019-05-03T10:10:01.307Z,100884.97
2019-05-03T10:11:15.147Z,100895.27
2019-05-03T10:12:20.975Z,100891.14
2019-05-03T10:13:27.285Z,100888.02
2019-05-03T10:14:32.382Z,100894.33
2019-05-03T10:15:42.125Z,100888.45
2019-05-03T10:17:18.183Z,100883.66
2019-05-03T10:18:25.251Z,100877.66
2019-05-03T10:19:37.693Z,100885.27
2019-05-03T10:20:36.007Z,100885.63
2019-05-03T10:21:44.892Z,100882.21
2019-05-03T10:22:49.669Z,100883.73
2019-05-03T10:23:54.847Z,100889.23
2019-05-03T10:24:59.817Z,100877.92
2019-05-03T10:26:05.155Z,100892.04
2019-05-03T10:27:09.733Z,100884.43
2019-05-03T10:28:15.325Z,100892.55
2019-05-03T10:29:19.993Z,100896.83
2019-05-03T10:30:28.460Z,100894.80
2019-05-03T10:31:40.820Z,100886.65
2019-05-03T10:32:48.486Z,100885.72
2019-05-03T10:33:57.723Z,100896.79
2019-05-03T10:35:05.782Z,100894.27
2019-05-03T10:36:10.792Z,100893.90
2019-05-03T10:37:30.433Z,100888.25
2019-05-03T10:38:35.208Z,100888.91
2019-05-03T10:39:40.175Z,100889.62
2019-05-03T10:40:45.399Z,100899.38
2019-05-03T10:41:50.620Z,100894.86
2019-05-03T10:42:55.980Z,100891.48
2019-05-03T10:44:00.687Z,100901.16
2019-05-03T10:45:05.459Z,100885.79
2019-05-03T10:46:10.481Z,100899.09
2019-05-03T10:47:15.459Z,100894.70
2019-05-03T10:48:20.473Z,100900.25
2019-05-03T10:49:25.264Z,100892.34
2019-05-03T10:50:29.958Z,100901.39
2019-05-03T10:51:39.249Z,100905.91
2019-05-03T10:52:49.404Z,100907.75
2019-05-03T10:53:57.647Z,100909.17
2019-05-03T10:55:02.587Z,100908.10
2019-05-03T10:56:22.860Z,100902.73
2019-05-03T10:57:25.365Z,100895.83
2019-05-03T10:58:30.650Z,100894.31
2019-05-03T10:59:35.648Z,100896.55
2019-05-03T11:00:49.533Z,100893.77
2019-05-03T11:02:07.355Z,100903.41
2019-05-03T11:03:13.478Z,100893.66
2019-05-03T11:04:18.737Z,100885.52
2019-05-03T11:05:24.016Z,100892.11
2019-05-03T11:06:29.025Z,100897.09
2019-05-03T11:07:34.599Z,100903.06
2019-05-03T11:08:39.320Z,100880.52
2019-05-03T11:09:49.686Z,100882.28
2019-05-03T11:10:51.093Z,100891.08
2019-05-03T11:11:56.694Z,100893.64
2019-05-03T11:13:01.923Z,100888.75
2019-05-03T11:14:06.677Z,100875.70
2019-05-03T11:15:11.630Z,100873.47
2019-05-03T11:16:16.082Z,100888.52
2019-05-03T11:17:21.054Z,100886.22
2019-05-03T11:18:26.027Z,100886.55
2019-05-03T11:19:31.036Z,100894.88
2019-05-03T11:20:36.350Z,100893.58
2019-05-03T11:21:41.337Z,100884.92
2019-05-03T11:22:46.056Z,100884.20
2019-05-03T11:23:51.324Z,100888.31
2019-05-03T11:24:56.301Z,100891.34
2019-05-03T11:26:01.568Z,100889.10
2019-05-03T11:27:11.443Z,100894.03
2019-05-03T11:28:20.941Z,100893.81
2019-05-03T11:29:25.951Z,100883.16
2019-05-03T11:30:30.934Z,100887.63
2019-05-03T11:32:09.272Z,100893.38
2019-05-03T11:33:17.621Z,100865.03
2019-05-03T11:34:25.334Z,100867.30
2019-05-03T11:35:41.215Z,100868.83
2019-05-03T11:36:50.246Z,100866.72
2019-05-03T11:38:15.075Z,100869.73
2019-05-03T11:39:20.338Z,100863.31
2019-05-03T11:40:25.610Z,100862.95
2019-05-03T11:41:32.926Z,100862.55
2019-05-03T11:42:37.665Z,100885.03
2019-05-03T11:43:44.372Z,100867.02
2019-05-03T11:44:49.395Z,100869.13
2019-05-03T11:45:55.488Z,100870.00
2019-05-03T11:47:00.252Z,100881.05
2019-05-03T11:48:05.175Z,100882.85
2019-05-03T11:49:10.237Z,100858.23
2019-05-03T11:50:15.004Z,100870.98
2019-05-03T11:51:20.656Z,100864.75
2019-05-03T11:52:25.874Z,100857.03
2019-05-03T11:53:30.686Z,100865.80
2019-05-03T11:54:35.929Z,100874.30
2019-05-03T11:55:40.759Z,100864.66
2019-05-03T11:56:45.363Z,100873.20
2019-05-03T11:57:50.591Z,100871.19
2019-05-03T11:58:55.134Z,100866.67
2019-05-03T12:00:00.036Z,100881.52
2019-05-03T12:01:18.881Z,100864.61
2019-05-03T12:02:25.604Z,100867.72
2019-05-03T12:03:35.518Z,100858.95
2019-05-03T12:04:40.638Z,100848.78
2019-05-03T12:05:48.551Z,100853.11
2019-05-03T12:06:54.999Z,100848.98
2019-05-03T12:08:00.014Z,100846.94
2019-05-03T12:09:05.675Z,100847.66
2019-05-03T12:10:26.837Z,100859.22
2019-05-03T12:11:18.185Z,100852.92
2019-05-03T12:12:29.556Z,100850.18
2019-05-03T12:13:34.053Z,100856.55
2019-05-03T12:14:39.032Z,100846.13
2019-05-03T12:15:44.622Z,100838.97
2019-05-03T12:17:14.642Z,100837.58
2019-05-03T12:18:05.955Z,100852.20
2019-05-03T12:19:17.116Z,100835.38
2019-05-03T12:20:19.227Z,100840.00
2019-05-03T12:21:26.585Z,100834.61
2019-05-03T12:22:30.735Z,100837.80
2019-05-03T12:23:37.069Z,100832.50
2019-05-03T12:24:45.532Z,100839.52
2019-05-03T12:25:50.011Z,100830.80
2019-05-03T12:26:55.818Z,100839.38
2019-05-03T12:28:00.836Z,100833.52
2019-05-03T12:29:05.640Z,100825.86
2019-05-03T12:30:10.533Z,100821.52
2019-05-03T12:31:29.624Z,100825.31
2019-05-03T12:32:21.936Z,100816.30
2019-05-03T12:33:26.903Z,100822.66
2019-05-03T12:34:31.738Z,100817.60
2019-05-03T12:35:36.509Z,100806.71
2019-05-03T12:36:41.501Z,100817.73
2019-05-03T12:37:46.725Z,100827.94
2019-05-03T12:38:51.701Z,100825.61
2019-05-03T12:39:56.645Z,100828.19
2019-05-03T12:41:01.333Z,100817.22
2019-05-03T12:42:06.052Z,100816.47
2019-05-03T12:43:11.307Z,100819.80
2019-05-03T12:44:16.005Z,100812.73
2019-05-03T12:45:20.994Z,100817.64
2019-05-03T12:46:26.248Z,100802.97
2019-05-03T12:47:31.393Z,100812.66
2019-05-03T12:48:36.412Z,100812.53
2019-05-03T12:49:41.630Z,100803.34